sensor_id;sensor_type;location;lat;lon;timestamp;temperature;humidity
26186;DHT22;20067;48.764;9.176;2023-10-09T00:01:04;15.60;91.30
26186;DHT22;20067;48.764;9.176;2023-10-09T00:03:46;15.60;91.30
26186;DHT22;20067;48.764;9.176;2023-10-09T00:06:16;15.30;91.30
26186;DHT22;20067;48.764;9.176;2023-10-09T00:08:42;15.10;91.30
26186;DHT22;20067;48.764;9.176;2023-10-09T00:11:15;15.10;91.30
26186;DHT22;20067;48.764;9.176;2023-10-09T00:13:46;15.30;91.30
26186;DHT22;20067;48.764;9.176;2023-10-09T00:16:20;15.70;91.30
26186;DHT22;20067;48.764;9.176;2023-10-09T00:18:59;15.90;91.30
26186;DHT22;20067;48.764;9.176;2023-10-09T00:21:39;15.90;91.30
26186;DHT22;20067;48.764;9.176;2023-10-09T00:24:04;15.50;91.30
26186;DHT22;20067;48.764;9.176;2023-10-09T00:26:43;15.00;91.30
26186;DHT22;20067;48.764;9.176;2023-10-09T00:29:13;14.90;91.30
26186;DHT22;20067;48.764;9.176;2023-10-09T00:31:41;15.10;91.30
26186;DHT22;20067;48.764;9.176;2023-10-09T00:34:16;15.50;91.30
26186;DHT22;20067;48.764;9.176;2023-10-09T00:36:46;15.40;91.30
26186;DHT22;20067;48.764;9.176;2023-10-09T00:39:18;15.60;91.30
26186;DHT22;20067;48.764;9.176;2023-10-09T00:42:07;15.60;91.30
26186;DHT22;20067;48.764;9.176;2023-10-09T00:44:33;15.20;91.30
26186;DHT22;20067;48.764;9.176;2023-10-09T00:47:08;15.20;91.30
26186;DHT22;20067;48.764;9.176;2023-10-09T00:50:06;14.70;91.30
26186;DHT22;20067;48.764;9.176;2023-10-09T00:52:44;14.40;91.30
26186;DHT22;20067;48.764;9.176;2023-10-09T00:55:27;14.60;91.30
26186;DHT22;20067;48.764;9.176;2023-10-09T00:58:03;14.80;91.30
26186;DHT22;20067;48.764;9.176;2023-10-09T01:00:35;15.10;91.30
26186;DHT22;20067;48.764;9.176;2023-10-09T01:03:11;14.90;91.30
26186;DHT22;20067;48.764;9.176;2023-10-09T01:05:55;15.00;91.30
26186;DHT22;20067;48.764;9.176;2023-10-09T01:08:26;14.90;91.30
26186;DHT22;20067;48.764;9.176;2023-10-09T01:11:14;14.70;91.30
26186;DHT22;20067;48.764;9.176;2023-10-09T01:13:55;14.70;91.30
26186;DHT22;20067;48.764;9.176;2023-10-09T01:16:37;15.10;91.30
26186;DHT22;20067;48.764;9.176;2023-10-09T01:19:03;15.10;91.30
26186;DHT22;20067;48.764;9.176;2023-10-09T01:21:38;15.20;91.30
26186;DHT22;20067;48.764;9.176;2023-10-09T01:24:05;15.00;91.30
26186;DHT22;20067;48.764;9.176;2023-10-09T01:26:41;14.80;91.30
26186;DHT22;20067;48.764;9.176;2023-10-09T01:29:17;14.60;91.30
26186;DHT22;20067;48.764;9.176;2023-10-09T01:31:50;14.80;91.30
26186;DHT22;20067;48.764;9.176;2023-10-09T01:37:18;15.30;91.30
26186;DHT22;20067;48.764;9.176;2023-10-09T01:39:50;15.30;91.30
26186;DHT22;20067;48.764;9.176;2023-10-09T01:42:17;15.40;91.30
26186;DHT22;20067;48.764;9.176;2023-10-09T01:44:50;15.40;91.30
26186;DHT22;20067;48.764;9.176;2023-10-09T01:47:16;15.40;91.30
26186;DHT22;20067;48.764;9.176;2023-10-09T01:49:44;15.70;91.30
26186;DHT22;20067;48.764;9.176;2023-10-09T01:52:14;15.70;91.30
26186;DHT22;20067;48.764;9.176;2023-10-09T01:54:45;15.50;91.30
26186;DHT22;20067;48.764;9.176;2023-10-09T01:57:27;15.70;91.30
26186;DHT22;20067;48.764;9.176;2023-10-09T01:59:55;15.70;91.30
26186;DHT22;20067;48.764;9.176;2023-10-09T02:02:25;15.80;91.30
26186;DHT22;20067;48.764;9.176;2023-10-09T02:04:54;15.80;91.20
26186;DHT22;20067;48.764;9.176;2023-10-09T02:07:20;15.90;91.30
26186;DHT22;20067;48.764;9.176;2023-10-09T02:09:54;15.80;91.30
26186;DHT22;20067;48.764;9.176;2023-10-09T02:12:19;15.80;91.30
26186;DHT22;20067;48.764;9.176;2023-10-09T02:14:48;16.00;91.30
26186;DHT22;20067;48.764;9.176;2023-10-09T02:17:13;15.70;91.20
26186;DHT22;20067;48.764;9.176;2023-10-09T02:19:45;15.80;91.30
26186;DHT22;20067;48.764;9.176;2023-10-09T02:22:15;15.90;91.30
26186;DHT22;20067;48.764;9.176;2023-10-09T02:24:42;15.90;91.30
26186;DHT22;20067;48.764;9.176;2023-10-09T02:27:15;15.70;91.30
26186;DHT22;20067;48.764;9.176;2023-10-09T02:30:02;15.70;90.40
26186;DHT22;20067;48.764;9.176;2023-10-09T02:32:35;15.80;90.00
26186;DHT22;20067;48.764;9.176;2023-10-09T02:35:01;15.90;89.20
26186;DHT22;20067;48.764;9.176;2023-10-09T02:37:37;16.00;89.40
26186;DHT22;20067;48.764;9.176;2023-10-09T02:40:04;16.00;89.50
26186;DHT22;20067;48.764;9.176;2023-10-09T02:42:34;16.10;88.10
26186;DHT22;20067;48.764;9.176;2023-10-09T02:45:00;16.00;88.20
26186;DHT22;20067;48.764;9.176;2023-10-09T02:47:26;16.00;88.50
26186;DHT22;20067;48.764;9.176;2023-10-09T02:49:57;16.10;88.40
26186;DHT22;20067;48.764;9.176;2023-10-09T02:52:34;16.10;88.20
26186;DHT22;20067;48.764;9.176;2023-10-09T02:55:06;16.10;87.60
26186;DHT22;20067;48.764;9.176;2023-10-09T02:57:53;16.10;88.30
26186;DHT22;20067;48.764;9.176;2023-10-09T03:00:33;16.00;88.50
26186;DHT22;20067;48.764;9.176;2023-10-09T03:03:02;16.00;88.50
26186;DHT22;20067;48.764;9.176;2023-10-09T03:05:31;16.30;87.90
26186;DHT22;20067;48.764;9.176;2023-10-09T03:07:57;16.40;87.40
26186;DHT22;20067;48.764;9.176;2023-10-09T03:10:23;16.30;88.30
26186;DHT22;20067;48.764;9.176;2023-10-09T03:12:49;16.40;87.90
26186;DHT22;20067;48.764;9.176;2023-10-09T03:15:19;16.50;87.50
26186;DHT22;20067;48.764;9.176;2023-10-09T03:17:45;16.40;88.20
26186;DHT22;20067;48.764;9.176;2023-10-09T03:20:12;16.30;88.10
26186;DHT22;20067;48.764;9.176;2023-10-09T03:22:39;16.40;87.40
26186;DHT22;20067;48.764;9.176;2023-10-09T03:25:06;16.40;87.20
26186;DHT22;20067;48.764;9.176;2023-10-09T03:27:40;16.30;87.30
26186;DHT22;20067;48.764;9.176;2023-10-09T03:30:14;16.20;87.60
26186;DHT22;20067;48.764;9.176;2023-10-09T03:32:45;16.20;87.80
26186;DHT22;20067;48.764;9.176;2023-10-09T03:35:16;16.10;87.90
26186;DHT22;20067;48.764;9.176;2023-10-09T03:37:55;16.10;88.00
26186;DHT22;20067;48.764;9.176;2023-10-09T03:40:26;16.20;87.70
26186;DHT22;20067;48.764;9.176;2023-10-09T03:42:52;16.20;87.90
26186;DHT22;20067;48.764;9.176;2023-10-09T03:45:21;16.20;87.50
26186;DHT22;20067;48.764;9.176;2023-10-09T03:47:52;16.20;87.40
26186;DHT22;20067;48.764;9.176;2023-10-09T03:50:27;16.30;87.30
26186;DHT22;20067;48.764;9.176;2023-10-09T03:53:01;16.10;87.90
26186;DHT22;20067;48.764;9.176;2023-10-09T03:55:28;16.10;87.80
26186;DHT22;20067;48.764;9.176;2023-10-09T03:57:56;16.30;87.40
26186;DHT22;20067;48.764;9.176;2023-10-09T04:00:23;16.40;87.00
26186;DHT22;20067;48.764;9.176;2023-10-09T04:02:56;16.40;87.00
26186;DHT22;20067;48.764;9.176;2023-10-09T04:05:25;16.20;86.90
26186;DHT22;20067;48.764;9.176;2023-10-09T04:07:51;16.30;86.80
26186;DHT22;20067;48.764;9.176;2023-10-09T04:10:20;16.50;86.60
26186;DHT22;20067;48.764;9.176;2023-10-09T04:12:59;16.40;86.50
26186;DHT22;20067;48.764;9.176;2023-10-09T04:15:26;16.50;86.40
26186;DHT22;20067;48.764;9.176;2023-10-09T04:17:56;16.50;85.80
26186;DHT22;20067;48.764;9.176;2023-10-09T04:20:22;16.30;86.90
26186;DHT22;20067;48.764;9.176;2023-10-09T04:22:48;16.40;86.80
26186;DHT22;20067;48.764;9.176;2023-10-09T04:25:20;16.40;86.50
26186;DHT22;20067;48.764;9.176;2023-10-09T04:28:01;16.30;86.90
26186;DHT22;20067;48.764;9.176;2023-10-09T04:30:44;16.30;87.00
26186;DHT22;20067;48.764;9.176;2023-10-09T04:33:12;16.30;86.70
26186;DHT22;20067;48.764;9.176;2023-10-09T04:36:03;16.30;86.80
26186;DHT22;20067;48.764;9.176;2023-10-09T04:38:51;16.20;87.30
26186;DHT22;20067;48.764;9.176;2023-10-09T04:41:40;16.20;87.20
26186;DHT22;20067;48.764;9.176;2023-10-09T04:44:09;16.10;87.40
26186;DHT22;20067;48.764;9.176;2023-10-09T04:47:01;16.20;87.30
26186;DHT22;20067;48.764;9.176;2023-10-09T04:49:37;16.10;87.60
26186;DHT22;20067;48.764;9.176;2023-10-09T04:52:29;16.10;87.30
26186;DHT22;20067;48.764;9.176;2023-10-09T04:54:54;16.10;87.30
26186;DHT22;20067;48.764;9.176;2023-10-09T04:57:46;16.10;87.90
26186;DHT22;20067;48.764;9.176;2023-10-09T05:00:26;16.00;87.60
26186;DHT22;20067;48.764;9.176;2023-10-09T05:05:25;16.10;87.40
26186;DHT22;20067;48.764;9.176;2023-10-09T05:08:09;16.10;87.30
26186;DHT22;20067;48.764;9.176;2023-10-09T05:10:49;16.00;87.40
26186;DHT22;20067;48.764;9.176;2023-10-09T05:13:24;16.00;87.50
26186;DHT22;20067;48.764;9.176;2023-10-09T05:16:14;15.90;88.70
26186;DHT22;20067;48.764;9.176;2023-10-09T05:18:58;16.00;88.50
26186;DHT22;20067;48.764;9.176;2023-10-09T05:21:38;16.20;87.90
26186;DHT22;20067;48.764;9.176;2023-10-09T05:24:07;16.10;88.30
26186;DHT22;20067;48.764;9.176;2023-10-09T05:26:43;16.00;89.00
26186;DHT22;20067;48.764;9.176;2023-10-09T05:29:15;15.90;89.00
26186;DHT22;20067;48.764;9.176;2023-10-09T05:32:04;15.90;89.70
26186;DHT22;20067;48.764;9.176;2023-10-09T05:34:40;15.70;90.50
26186;DHT22;20067;48.764;9.176;2023-10-09T05:37:28;15.90;90.70
26186;DHT22;20067;48.764;9.176;2023-10-09T05:42:34;16.00;90.30
26186;DHT22;20067;48.764;9.176;2023-10-09T05:45:06;16.10;90.50
26186;DHT22;20067;48.764;9.176;2023-10-09T05:47:51;16.20;89.50
26186;DHT22;20067;48.764;9.176;2023-10-09T05:50:32;16.30;89.50
26186;DHT22;20067;48.764;9.176;2023-10-09T05:53:03;16.20;89.80
26186;DHT22;20067;48.764;9.176;2023-10-09T05:55:35;16.20;89.40
26186;DHT22;20067;48.764;9.176;2023-10-09T05:58:14;16.30;89.00
26186;DHT22;20067;48.764;9.176;2023-10-09T06:00:58;16.20;89.60
26186;DHT22;20067;48.764;9.176;2023-10-09T06:03:43;16.10;89.50
26186;DHT22;20067;48.764;9.176;2023-10-09T06:06:15;16.00;89.30
26186;DHT22;20067;48.764;9.176;2023-10-09T06:09:02;16.00;89.80
26186;DHT22;20067;48.764;9.176;2023-10-09T06:14:18;16.00;89.00
26186;DHT22;20067;48.764;9.176;2023-10-09T06:16:57;16.00;89.00
26186;DHT22;20067;48.764;9.176;2023-10-09T06:19:24;16.00;89.70
26186;DHT22;20067;48.764;9.176;2023-10-09T06:21:58;16.20;87.70
26186;DHT22;20067;48.764;9.176;2023-10-09T06:24:43;16.40;87.20
26186;DHT22;20067;48.764;9.176;2023-10-09T06:27:21;16.50;86.90
26186;DHT22;20067;48.764;9.176;2023-10-09T06:29:50;16.50;87.00
26186;DHT22;20067;48.764;9.176;2023-10-09T06:32:18;16.40;86.40
26186;DHT22;20067;48.764;9.176;2023-10-09T06:34:51;16.40;86.50
26186;DHT22;20067;48.764;9.176;2023-10-09T06:37:20;16.50;86.60
26186;DHT22;20067;48.764;9.176;2023-10-09T06:39:53;16.50;86.60
26186;DHT22;20067;48.764;9.176;2023-10-09T06:42:28;16.70;86.40
26186;DHT22;20067;48.764;9.176;2023-10-09T06:45:02;16.70;86.10
26186;DHT22;20067;48.764;9.176;2023-10-09T06:47:32;16.80;85.80
26186;DHT22;20067;48.764;9.176;2023-10-09T06:50:13;16.90;85.20
26186;DHT22;20067;48.764;9.176;2023-10-09T06:52:51;16.80;86.50
26186;DHT22;20067;48.764;9.176;2023-10-09T06:55:43;16.90;85.50
26186;DHT22;20067;48.764;9.176;2023-10-09T06:58:19;16.80;86.50
26186;DHT22;20067;48.764;9.176;2023-10-09T07:00:52;16.90;86.30
26186;DHT22;20067;48.764;9.176;2023-10-09T07:03:24;17.00;87.00
26186;DHT22;20067;48.764;9.176;2023-10-09T07:06:09;17.10;86.00
26186;DHT22;20067;48.764;9.176;2023-10-09T07:08:51;17.10;85.50
26186;DHT22;20067;48.764;9.176;2023-10-09T07:11:42;17.10;85.50
26186;DHT22;20067;48.764;9.176;2023-10-09T07:14:15;17.00;85.80
26186;DHT22;20067;48.764;9.176;2023-10-09T07:19:44;17.40;85.60
26186;DHT22;20067;48.764;9.176;2023-10-09T07:22:16;17.30;85.90
26186;DHT22;20067;48.764;9.176;2023-10-09T07:24:54;17.30;86.60
26186;DHT22;20067;48.764;9.176;2023-10-09T07:30:08;17.50;85.80
26186;DHT22;20067;48.764;9.176;2023-10-09T07:33:04;17.50;84.90
26186;DHT22;20067;48.764;9.176;2023-10-09T07:35:33;17.60;85.20
26186;DHT22;20067;48.764;9.176;2023-10-09T07:38:12;17.70;85.10
26186;DHT22;20067;48.764;9.176;2023-10-09T07:40:40;17.90;84.90
26186;DHT22;20067;48.764;9.176;2023-10-09T07:43:29;17.80;84.60
26186;DHT22;20067;48.764;9.176;2023-10-09T07:46:09;17.50;85.60
26186;DHT22;20067;48.764;9.176;2023-10-09T07:48:57;17.40;86.90
26186;DHT22;20067;48.764;9.176;2023-10-09T07:51:24;17.90;85.50
26186;DHT22;20067;48.764;9.176;2023-10-09T07:53:57;18.00;84.80
26186;DHT22;20067;48.764;9.176;2023-10-09T07:56:38;18.30;84.60
26186;DHT22;20067;48.764;9.176;2023-10-09T07:59:07;18.40;84.30
26186;DHT22;20067;48.764;9.176;2023-10-09T08:04:03;18.20;84.50
26186;DHT22;20067;48.764;9.176;2023-10-09T08:06:39;18.20;85.20
26186;DHT22;20067;48.764;9.176;2023-10-09T08:09:09;18.10;85.20
26186;DHT22;20067;48.764;9.176;2023-10-09T08:11:41;18.30;84.60
26186;DHT22;20067;48.764;9.176;2023-10-09T08:14:13;18.40;84.80
26186;DHT22;20067;48.764;9.176;2023-10-09T08:16:58;18.70;83.70
26186;DHT22;20067;48.764;9.176;2023-10-09T08:19:50;18.90;83.70
26186;DHT22;20067;48.764;9.176;2023-10-09T08:22:28;19.20;82.70
26186;DHT22;20067;48.764;9.176;2023-10-09T08:24:55;19.20;82.30
26186;DHT22;20067;48.764;9.176;2023-10-09T08:27:27;19.20;82.30
26186;DHT22;20067;48.764;9.176;2023-10-09T08:30:05;19.40;82.10
26186;DHT22;20067;48.764;9.176;2023-10-09T08:32:54;19.50;81.40
26186;DHT22;20067;48.764;9.176;2023-10-09T08:35:36;19.50;81.00
26186;DHT22;20067;48.764;9.176;2023-10-09T08:38:15;19.70;80.70
26186;DHT22;20067;48.764;9.176;2023-10-09T08:40:43;19.80;80.50
26186;DHT22;20067;48.764;9.176;2023-10-09T08:43:15;19.80;80.20
26186;DHT22;20067;48.764;9.176;2023-10-09T08:45:45;19.90;80.00
26186;DHT22;20067;48.764;9.176;2023-10-09T08:48:12;19.80;79.80
26186;DHT22;20067;48.764;9.176;2023-10-09T08:50:41;19.80;79.70
26186;DHT22;20067;48.764;9.176;2023-10-09T08:53:09;19.80;79.90
26186;DHT22;20067;48.764;9.176;2023-10-09T08:55:37;19.80;80.10
26186;DHT22;20067;48.764;9.176;2023-10-09T08:58:04;19.90;80.30
26186;DHT22;20067;48.764;9.176;2023-10-09T09:00:51;19.90;81.10
26186;DHT22;20067;48.764;9.176;2023-10-09T09:03:19;19.90;81.00
26186;DHT22;20067;48.764;9.176;2023-10-09T09:05:48;20.10;80.90
26186;DHT22;20067;48.764;9.176;2023-10-09T09:08:28;20.30;79.90
26186;DHT22;20067;48.764;9.176;2023-10-09T09:11:03;20.30;79.10
26186;DHT22;20067;48.764;9.176;2023-10-09T09:13:39;20.50;79.10
26186;DHT22;20067;48.764;9.176;2023-10-09T09:16:23;20.50;79.10
26186;DHT22;20067;48.764;9.176;2023-10-09T09:18:59;20.40;79.10
26186;DHT22;20067;48.764;9.176;2023-10-09T09:21:36;20.40;79.10
26186;DHT22;20067;48.764;9.176;2023-10-09T09:24:10;20.60;79.40
26186;DHT22;20067;48.764;9.176;2023-10-09T09:26:54;20.90;78.50
26186;DHT22;20067;48.764;9.176;2023-10-09T09:32:03;21.20;77.20
26186;DHT22;20067;48.764;9.176;2023-10-09T09:34:52;21.20;77.60
26186;DHT22;20067;48.764;9.176;2023-10-09T09:37:24;21.30;77.00
26186;DHT22;20067;48.764;9.176;2023-10-09T09:40:10;21.60;76.40
26186;DHT22;20067;48.764;9.176;2023-10-09T09:42:43;21.70;76.20
26186;DHT22;20067;48.764;9.176;2023-10-09T09:45:14;21.80;75.30
26186;DHT22;20067;48.764;9.176;2023-10-09T09:47:43;21.70;75.50
26186;DHT22;20067;48.764;9.176;2023-10-09T09:50:17;21.70;75.60
26186;DHT22;20067;48.764;9.176;2023-10-09T09:52:50;21.60;75.70
26186;DHT22;20067;48.764;9.176;2023-10-09T09:55:24;21.60;76.30
26186;DHT22;20067;48.764;9.176;2023-10-09T09:57:57;21.70;75.70
26186;DHT22;20067;48.764;9.176;2023-10-09T10:00:26;21.80;75.20
26186;DHT22;20067;48.764;9.176;2023-10-09T10:03:14;21.90;75.10
26186;DHT22;20067;48.764;9.176;2023-10-09T10:05:43;22.00;74.80
26186;DHT22;20067;48.764;9.176;2023-10-09T10:08:16;22.00;75.10
26186;DHT22;20067;48.764;9.176;2023-10-09T10:10:48;22.10;74.30
26186;DHT22;20067;48.764;9.176;2023-10-09T10:13:59;22.30;74.70
26186;DHT22;20067;48.764;9.176;2023-10-09T10:16:31;22.60;73.90
26186;DHT22;20067;48.764;9.176;2023-10-09T10:19:02;22.60;73.00
26186;DHT22;20067;48.764;9.176;2023-10-09T10:21:49;22.70;72.80
26186;DHT22;20067;48.764;9.176;2023-10-09T10:33:00;23.10;71.90
26186;DHT22;20067;48.764;9.176;2023-10-09T10:35:35;23.10;71.50
26186;DHT22;20067;48.764;9.176;2023-10-09T10:38:34;23.20;71.00
26186;DHT22;20067;48.764;9.176;2023-10-09T10:41:10;23.40;71.20
26186;DHT22;20067;48.764;9.176;2023-10-09T10:43:46;23.60;70.10
26186;DHT22;20067;48.764;9.176;2023-10-09T10:46:26;23.50;69.90
26186;DHT22;20067;48.764;9.176;2023-10-09T10:49:05;23.40;69.60
26186;DHT22;20067;48.764;9.176;2023-10-09T10:51:47;23.30;70.50
26186;DHT22;20067;48.764;9.176;2023-10-09T10:54:25;23.10;70.40
26186;DHT22;20067;48.764;9.176;2023-10-09T10:56:53;23.00;69.80
26186;DHT22;20067;48.764;9.176;2023-10-09T10:59:23;23.00;69.70
26186;DHT22;20067;48.764;9.176;2023-10-09T11:01:50;23.00;69.30
26186;DHT22;20067;48.764;9.176;2023-10-09T11:04:39;23.00;69.50
26186;DHT22;20067;48.764;9.176;2023-10-09T11:07:09;23.10;69.50
26186;DHT22;20067;48.764;9.176;2023-10-09T11:09:50;23.10;69.40
26186;DHT22;20067;48.764;9.176;2023-10-09T11:15:34;23.20;68.10
26186;DHT22;20067;48.764;9.176;2023-10-09T11:18:21;23.40;69.00
26186;DHT22;20067;48.764;9.176;2023-10-09T11:20:57;23.50;67.40
26186;DHT22;20067;48.764;9.176;2023-10-09T11:23:29;23.70;66.80
26186;DHT22;20067;48.764;9.176;2023-10-09T11:26:04;23.90;67.20
26186;DHT22;20067;48.764;9.176;2023-10-09T11:29:12;24.10;67.20
26186;DHT22;20067;48.764;9.176;2023-10-09T11:32:25;24.20;65.60
26186;DHT22;20067;48.764;9.176;2023-10-09T11:35:11;24.30;66.30
26186;DHT22;20067;48.764;9.176;2023-10-09T11:37:37;24.30;67.20
26186;DHT22;20067;48.764;9.176;2023-10-09T11:40:28;24.10;65.80
26186;DHT22;20067;48.764;9.176;2023-10-09T11:43:00;23.90;66.50
26186;DHT22;20067;48.764;9.176;2023-10-09T11:45:27;23.80;66.70
26186;DHT22;20067;48.764;9.176;2023-10-09T11:47:57;23.70;67.10
26186;DHT22;20067;48.764;9.176;2023-10-09T11:50:42;23.60;66.00
26186;DHT22;20067;48.764;9.176;2023-10-09T11:53:09;23.50;64.90
26186;DHT22;20067;48.764;9.176;2023-10-09T11:55:48;23.30;64.70
26186;DHT22;20067;48.764;9.176;2023-10-09T11:58:15;23.30;63.70
26186;DHT22;20067;48.764;9.176;2023-10-09T12:00:49;23.30;65.60
26186;DHT22;20067;48.764;9.176;2023-10-09T12:03:14;23.30;66.30
26186;DHT22;20067;48.764;9.176;2023-10-09T12:05:40;23.30;65.20
26186;DHT22;20067;48.764;9.176;2023-10-09T12:08:10;23.30;65.40
26186;DHT22;20067;48.764;9.176;2023-10-09T12:10:36;23.30;66.70
26186;DHT22;20067;48.764;9.176;2023-10-09T12:13:05;23.30;65.00
26186;DHT22;20067;48.764;9.176;2023-10-09T12:15:31;23.20;64.70
26186;DHT22;20067;48.764;9.176;2023-10-09T12:18:05;23.20;64.00
26186;DHT22;20067;48.764;9.176;2023-10-09T12:20:42;23.20;63.20
26186;DHT22;20067;48.764;9.176;2023-10-09T12:23:15;23.40;60.60
26186;DHT22;20067;48.764;9.176;2023-10-09T12:25:40;23.70;59.10
26186;DHT22;20067;48.764;9.176;2023-10-09T12:28:10;23.90;58.10
26186;DHT22;20067;48.764;9.176;2023-10-09T12:30:37;24.20;58.80
26186;DHT22;20067;48.764;9.176;2023-10-09T12:33:05;24.60;60.00
26186;DHT22;20067;48.764;9.176;2023-10-09T12:35:39;25.00;55.90
26186;DHT22;20067;48.764;9.176;2023-10-09T12:38:05;25.60;58.70
26186;DHT22;20067;48.764;9.176;2023-10-09T12:40:36;25.70;55.30
26186;DHT22;20067;48.764;9.176;2023-10-09T12:43:03;25.80;52.90
26186;DHT22;20067;48.764;9.176;2023-10-09T12:45:34;26.00;50.90
26186;DHT22;20067;48.764;9.176;2023-10-09T12:47:59;26.20;51.60
26186;DHT22;20067;48.764;9.176;2023-10-09T12:50:33;26.50;55.50
26186;DHT22;20067;48.764;9.176;2023-10-09T12:53:00;26.30;53.30
26186;DHT22;20067;48.764;9.176;2023-10-09T12:55:37;25.90;50.20
26186;DHT22;20067;48.764;9.176;2023-10-09T12:58:10;25.80;50.50
26186;DHT22;20067;48.764;9.176;2023-10-09T13:00:40;25.70;50.60
26186;DHT22;20067;48.764;9.176;2023-10-09T13:03:12;25.80;52.90
26186;DHT22;20067;48.764;9.176;2023-10-09T13:05:52;25.80;53.60
26186;DHT22;20067;48.764;9.176;2023-10-09T13:08:24;25.80;54.00
26186;DHT22;20067;48.764;9.176;2023-10-09T13:10:57;25.40;54.50
26186;DHT22;20067;48.764;9.176;2023-10-09T13:13:29;25.60;54.70
26186;DHT22;20067;48.764;9.176;2023-10-09T13:16:09;25.60;55.40
26186;DHT22;20067;48.764;9.176;2023-10-09T13:18:40;25.40;56.80
26186;DHT22;20067;48.764;9.176;2023-10-09T13:21:07;25.30;54.30
26186;DHT22;20067;48.764;9.176;2023-10-09T13:23:32;25.20;53.60
26186;DHT22;20067;48.764;9.176;2023-10-09T13:26:07;25.50;53.90
26186;DHT22;20067;48.764;9.176;2023-10-09T13:28:53;25.40;53.50
26186;DHT22;20067;48.764;9.176;2023-10-09T13:31:19;25.40;49.30
26186;DHT22;20067;48.764;9.176;2023-10-09T13:33:47;25.60;49.10
26186;DHT22;20067;48.764;9.176;2023-10-09T13:36:14;25.60;48.80
26186;DHT22;20067;48.764;9.176;2023-10-09T13:38:45;25.60;45.90
26186;DHT22;20067;48.764;9.176;2023-10-09T13:41:12;25.60;46.40
26186;DHT22;20067;48.764;9.176;2023-10-09T13:43:43;25.60;44.00
26186;DHT22;20067;48.764;9.176;2023-10-09T13:46:12;25.70;43.50
26186;DHT22;20067;48.764;9.176;2023-10-09T13:48:41;25.80;43.00
26186;DHT22;20067;48.764;9.176;2023-10-09T13:51:12;25.90;42.20
26186;DHT22;20067;48.764;9.176;2023-10-09T13:53:45;26.00;42.80
26186;DHT22;20067;48.764;9.176;2023-10-09T13:56:15;26.00;42.30
26186;DHT22;20067;48.764;9.176;2023-10-09T13:59:01;26.10;43.40
26186;DHT22;20067;48.764;9.176;2023-10-09T14:01:27;26.30;41.90
26186;DHT22;20067;48.764;9.176;2023-10-09T14:03:54;26.40;42.60
26186;DHT22;20067;48.764;9.176;2023-10-09T14:06:20;26.40;42.70
26186;DHT22;20067;48.764;9.176;2023-10-09T14:09:03;26.50;43.80
26186;DHT22;20067;48.764;9.176;2023-10-09T14:11:35;26.80;43.50
26186;DHT22;20067;48.764;9.176;2023-10-09T14:14:05;27.00;43.60
26186;DHT22;20067;48.764;9.176;2023-10-09T14:16:36;27.10;43.50
26186;DHT22;20067;48.764;9.176;2023-10-09T14:19:01;27.00;43.70
26186;DHT22;20067;48.764;9.176;2023-10-09T14:21:32;26.90;43.70
26186;DHT22;20067;48.764;9.176;2023-10-09T14:24:01;26.80;41.60
26186;DHT22;20067;48.764;9.176;2023-10-09T14:26:27;26.70;42.40
26186;DHT22;20067;48.764;9.176;2023-10-09T14:28:54;26.70;42.80
26186;DHT22;20067;48.764;9.176;2023-10-09T14:31:25;26.80;43.30
26186;DHT22;20067;48.764;9.176;2023-10-09T14:33:55;26.60;43.10
26186;DHT22;20067;48.764;9.176;2023-10-09T14:36:21;26.50;43.00
26186;DHT22;20067;48.764;9.176;2023-10-09T14:38:59;26.30;42.90
26186;DHT22;20067;48.764;9.176;2023-10-09T14:41:25;26.30;43.10
26186;DHT22;20067;48.764;9.176;2023-10-09T14:43:51;26.20;43.80
26186;DHT22;20067;48.764;9.176;2023-10-09T14:46:18;26.10;43.00
26186;DHT22;20067;48.764;9.176;2023-10-09T14:48:51;26.10;44.40
26186;DHT22;20067;48.764;9.176;2023-10-09T14:51:19;26.20;44.50
26186;DHT22;20067;48.764;9.176;2023-10-09T14:53:58;26.20;43.70
26186;DHT22;20067;48.764;9.176;2023-10-09T14:56:27;26.20;45.50
26186;DHT22;20067;48.764;9.176;2023-10-09T14:58:59;25.90;45.80
26186;DHT22;20067;48.764;9.176;2023-10-09T15:01:26;25.60;46.50
26186;DHT22;20067;48.764;9.176;2023-10-09T15:03:56;25.60;46.30
26186;DHT22;20067;48.764;9.176;2023-10-09T15:06:24;25.40;47.80
26186;DHT22;20067;48.764;9.176;2023-10-09T15:08:50;25.50;48.80
26186;DHT22;20067;48.764;9.176;2023-10-09T15:11:15;25.70;48.60
26186;DHT22;20067;48.764;9.176;2023-10-09T15:13:41;25.60;47.40
26186;DHT22;20067;48.764;9.176;2023-10-09T15:16:07;25.70;50.80
26186;DHT22;20067;48.764;9.176;2023-10-09T15:18:33;25.60;49.50
26186;DHT22;20067;48.764;9.176;2023-10-09T15:21:02;25.40;51.60
26186;DHT22;20067;48.764;9.176;2023-10-09T15:23:28;25.40;53.00
26186;DHT22;20067;48.764;9.176;2023-10-09T15:25:54;25.20;52.90
26186;DHT22;20067;48.764;9.176;2023-10-09T15:28:22;25.00;53.70
26186;DHT22;20067;48.764;9.176;2023-10-09T15:30:48;24.80;54.80
26186;DHT22;20067;48.764;9.176;2023-10-09T15:33:17;24.60;52.40
26186;DHT22;20067;48.764;9.176;2023-10-09T15:35:44;24.50;54.80
26186;DHT22;20067;48.764;9.176;2023-10-09T15:38:15;24.40;55.40
26186;DHT22;20067;48.764;9.176;2023-10-09T15:40:41;24.30;56.70
26186;DHT22;20067;48.764;9.176;2023-10-09T15:43:09;24.20;56.90
26186;DHT22;20067;48.764;9.176;2023-10-09T15:45:41;24.00;57.00
26186;DHT22;20067;48.764;9.176;2023-10-09T15:48:07;23.90;57.20
26186;DHT22;20067;48.764;9.176;2023-10-09T15:50:33;23.90;58.00
26186;DHT22;20067;48.764;9.176;2023-10-09T15:53:00;23.80;57.90
26186;DHT22;20067;48.764;9.176;2023-10-09T15:55:27;23.80;58.30
26186;DHT22;20067;48.764;9.176;2023-10-09T15:57:53;23.70;57.70
26186;DHT22;20067;48.764;9.176;2023-10-09T16:00:22;23.60;59.00
26186;DHT22;20067;48.764;9.176;2023-10-09T16:02:54;23.50;61.00
26186;DHT22;20067;48.764;9.176;2023-10-09T16:05:20;23.60;58.10
26186;DHT22;20067;48.764;9.176;2023-10-09T16:07:54;23.50;58.30
26186;DHT22;20067;48.764;9.176;2023-10-09T16:10:21;23.50;58.10
26186;DHT22;20067;48.764;9.176;2023-10-09T16:12:47;23.30;57.70
26186;DHT22;20067;48.764;9.176;2023-10-09T16:15:13;23.20;58.80
26186;DHT22;20067;48.764;9.176;2023-10-09T16:17:40;23.10;59.10
26186;DHT22;20067;48.764;9.176;2023-10-09T16:20:09;23.00;59.30
26186;DHT22;20067;48.764;9.176;2023-10-09T16:22:48;22.70;61.50
26186;DHT22;20067;48.764;9.176;2023-10-09T16:25:13;22.70;61.50
26186;DHT22;20067;48.764;9.176;2023-10-09T16:27:43;22.70;61.00
26186;DHT22;20067;48.764;9.176;2023-10-09T16:30:14;22.60;62.20
26186;DHT22;20067;48.764;9.176;2023-10-09T16:32:44;22.50;62.40
26186;DHT22;20067;48.764;9.176;2023-10-09T16:35:11;22.30;63.90
26186;DHT22;20067;48.764;9.176;2023-10-09T16:37:36;22.20;63.60
26186;DHT22;20067;48.764;9.176;2023-10-09T16:40:02;22.20;64.00
26186;DHT22;20067;48.764;9.176;2023-10-09T16:42:32;22.10;65.60